• Join FlightAware (Why Join?)
  • Login
  • US Flag 
06:16PM EST


 

Airport Tracker/Info


-or-


 

Live Flight TrackerFlight Track Log ✈ N910SE ✈ 31-Jan-2014 ✈ KVNY - KVCV

Flight Track Log - Related Links

Times and Time Zones

All times are in EST time to prevent confusion due to time zone crossing. See the N910SE flight status page for this flight to view local times or setup timezone preferences in your user account.

Time Position Orientation Groundspeed Altitude Reporting Facility
EST Latitude Longitude Course Direction KTS MPH feet Rate Location/Type
01:11PM 34.1833 -118.5000 75° East 90 104 1,700  Level Southern California TRACON
01:12PM 34.2000 -118.5167 320° Northwest 106 122 2,100 300 Climbing Southern California TRACON
01:13PM 34.2333 -118.5167 360° North 109 125 2,300 180 Climbing Southern California TRACON
01:14PM 34.2500 -118.5167 360° North 109 125 2,500 240 Climbing Southern California TRACON
01:15PM 34.2833 -118.5167 360° North 107 123 2,800 480 Climbing Southern California TRACON
01:15PM 34.3000 -118.5000 40° Northeast 87 100 3,400 600 Climbing Southern California TRACON
01:16PM 34.2714 -118.3166 75° East  Level Estimated
01:16PM 34.3333 -118.5000 360° North 79 91 4,000  Level Southern California TRACON
01:17PM 34.3500 -118.5000 360° North 76 87 4,600 600 Climbing Southern California TRACON
01:18PM 34.3667 -118.4833 40° Northeast 83 96 5,200 600 Climbing Southern California TRACON
01:19PM 34.3833 -118.4667 40° Northeast 87 100 5,800 540 Climbing Southern California TRACON
01:20PM 34.4000 -118.4500 40° Northeast 90 104 6,300 540 Climbing Southern California TRACON
01:21PM 34.4036 -118.4369 71° East 89 102 6,600 540 Climbing Los Angeles Center
01:22PM 34.4147 -118.4081 65° Northeast 93 107 7,200 480 Climbing Los Angeles Center
01:23PM 34.4192 -118.3681 82° East 101 116 7,600 240 Climbing Los Angeles Center
01:24PM 34.4244 -118.3272 81° East 121 139 7,700  Climbing Los Angeles Center
01:25PM 34.4419 -118.2889 61° Northeast 135 155 7,700 -60 Level Los Angeles Center
01:26PM 34.4642 -118.2553 51° Northeast 127 146 7,600 -60 Descending Los Angeles Center
01:27PM 34.4800 -118.2186 62° Northeast 124 143 7,600 -300 Level Los Angeles Center
01:28PM 34.4989 -118.1847 56° Northeast 122 140 7,000 -660 Descending Los Angeles Center
01:29PM 34.5086 -118.1364 76° East 129 148 6,300 -480 Descending Los Angeles Center
01:30PM 34.5197 -118.1017 69° East 120 138 6,100 -120 Descending Los Angeles Center
01:31PM 34.5308 -118.0639 70° East 119 137 6,100  Level Los Angeles Center
01:32PM 34.5431 -118.0172 72° East 119 137 6,100  Level Los Angeles Center
01:33PM 34.5503 -117.9739 79° East 124 143 6,100  Level Los Angeles Center
01:34PM 34.5544 -117.9294 83° East 129 148 6,100  Level Los Angeles Center
01:35PM 34.5575 -117.8850 85° East 130 150 6,100 -60 Level Los Angeles Center
01:36PM 34.5572 -117.8417 90° East 130 150 6,000 -240 Descending Los Angeles Center
01:37PM 34.5536 -117.7950 95° East 132 152 5,700 -180 Descending Los Angeles Center
01:38PM 34.5478 -117.7411 97° East 135 155 5,700  Level Los Angeles Center
01:40PM 34.5431 -117.6983 98° East 133 153 5,700  Level Los Angeles Center
01:41PM 34.5444 -117.6461 88° East 130 150 5,700  Level Los Angeles Center
01:42PM 34.5456 -117.6014 88° East 131 151 5,700 -120 Level Los Angeles Center
01:43PM 34.5456 -117.5575 90° East 132 152 5,500 -240 Descending Los Angeles Center
01:44PM 34.5458 -117.5011 90° East 135 155 5,300 -240 Descending Los Angeles Center
01:45PM 34.5639 -117.4614 61° Northeast 141 162 5,100 -360 Descending Los Angeles Center
01:46PM 34.5875 -117.4275 50° Northeast 134 154 4,600 -600 Descending Los Angeles Center
01:47PM 34.6086 -117.3881 57° Northeast 136 157 3,900 -540 Descending Los Angeles Center
01:48PM 34.6211 -117.3542 66° East 126 145 3,500 -300 Descending Los Angeles Center
01:49PM 34.6094 -117.3725 232° Southwest 124 143 3,300 -240 Descending Los Angeles Center